Time;durP1;ratioP1;P1;durP2;ratioP2;P2;SDS_P1;SDS_P2;PMS_P1;PMS_P2;Temp;Humidity;BMP_temperature;BMP_pressure;BME280_temperature;BME280_humidity;BME280_pressure;Samples;Min_cycle;Max_cycle;Signal;HPM_P1;HPM_P2
2023/05/09 00:01:09;;;;;;;;;7.00;5.67;;;;;;;;2040101;27;2734671;-73
2023/05/09 00:02:22;;;;;;;;;7.00;6.00;;;;;;;;2037549;27;2744013;-73
2023/05/09 00:03:33;;;;;;;;;6.33;6.00;;;;;;;;2019864;27;2729528;-73
2023/05/09 00:04:43;;;;;;;;;6.00;6.00;;;;;;;;2068854;27;2737207;-73
2023/05/09 00:05:54;;;;;;;;;8.00;7.33;;;;;;;;2036679;27;1846106;-73
2023/05/09 00:07:05;;;;;;;;;5.33;5.33;;;;;;;;2039383;27;2733669;-73
2023/05/09 00:08:17;;;;;;;;;6.00;6.00;;;;;;;;2061113;27;2745074;-73
2023/05/09 00:09:27;;;;;;;;;8.67;6.00;;;;;;;;2016181;27;2736755;-73
2023/05/09 00:10:38;;;;;;;;;6.00;5.67;;;;;;;;2066446;27;2746605;-73
2023/05/09 00:11:49;;;;;;;;;7.33;5.00;;;;;;;;2060985;27;2745091;-73
2023/05/09 00:13:00;;;;;;;;;5.00;5.00;;;;;;;;2062387;27;2743000;-73
2023/05/09 00:14:12;;;;;;;;;6.67;5.33;;;;;;;;2069660;27;2740925;-73
2023/05/09 00:15:24;;;;;;;;;7.33;4.33;;;;;;;;2036931;27;2744506;-73
2023/05/09 00:16:35;;;;;;;;;6.00;5.33;;;;;;;;2036578;27;2740891;-73
2023/05/09 00:17:45;;;;;;;;;5.00;5.00;;;;;;;;2042502;27;3459631;-73
2023/05/09 00:18:56;;;;;;;;;8.00;6.00;;;;;;;;2059195;27;2742081;-73
2023/05/09 00:20:11;;;;;;;;;8.00;7.00;;;;;;;;2053159;27;2731548;-73
2023/05/09 00:21:24;;;;;;;;;4.50;4.17;;;;;;;;2060972;27;2746111;-73
2023/05/09 00:22:34;;;;;;;;;4.00;3.67;;;;;;;;2017463;27;2752505;-73
2023/05/09 00:23:45;;;;;;;;;7.00;6.00;;;;;;;;2065458;27;2735710;-73
2023/05/09 00:24:55;;;;;;;;;7.00;5.33;;;;;;;;2035774;27;2741953;-73
2023/05/09 00:26:06;;;;;;;;;5.67;5.00;;;;;;;;2049310;28;2746133;-73
2023/05/09 00:27:17;;;;;;;;;8.00;8.00;;;;;;;;2044532;27;2746190;-73
2023/05/09 00:28:28;;;;;;;;;4.67;4.33;;;;;;;;2044848;27;2746184;-73
2023/05/09 00:29:39;;;;;;;;;3.67;3.67;;;;;;;;2054404;27;2752412;-73
2023/05/09 00:30:50;;;;;;;;;3.67;3.67;;;;;;;;2061499;27;3457528;-73
2023/05/09 00:32:01;;;;;;;;;5.00;4.00;;;;;;;;2062167;27;2746091;-73
2023/05/09 00:33:12;;;;;;;;;8.67;7.00;;;;;;;;2067737;27;2739837;-73
2023/05/09 00:34:22;;;;;;;;;4.33;4.33;;;;;;;;2036121;27;3449199;-73
2023/05/09 00:35:33;;;;;;;;;5.67;5.67;;;;;;;;2065778;27;2747132;-73
2023/05/09 00:36:43;;;;;;;;;8.00;5.33;;;;;;;;2037404;27;2747136;-73
2023/05/09 00:37:54;;;;;;;;;8.33;8.00;;;;;;;;2065675;27;2738981;-73
2023/05/09 00:39:05;;;;;;;;;4.67;4.67;;;;;;;;2063579;27;2748555;-73
2023/05/09 00:40:16;;;;;;;;;5.33;3.00;;;;;;;;2059938;27;2738827;-73
2023/05/09 00:41:29;;;;;;;;;6.33;6.00;;;;;;;;2052478;27;2732580;-73
2023/05/09 00:42:39;;;;;;;;;6.00;5.00;;;;;;;;2011921;27;2748206;-73
2023/05/09 00:43:51;;;;;;;;;4.67;4.67;;;;;;;;2065644;27;2754515;-73
2023/05/09 00:45:01;;;;;;;;;7.33;7.00;;;;;;;;2066997;27;2746187;-73
2023/05/09 00:46:12;;;;;;;;;7.00;6.00;;;;;;;;2041126;27;2740878;-73
2023/05/09 00:47:23;;;;;;;;;4.33;4.33;;;;;;;;2061935;27;2737865;-73
2023/05/09 00:48:34;;;;;;;;;5.00;5.00;;;;;;;;2058345;27;2739850;-73
2023/05/09 00:49:44;;;;;;;;;6.00;5.00;;;;;;;;2040829;27;2746578;-73
2023/05/09 00:50:55;;;;;;;;;6.00;4.00;;;;;;;;2064104;27;2750331;-73
2023/05/09 00:52:06;;;;;;;;;5.33;5.33;;;;;;;;2051566;27;3461703;-73
2023/05/09 00:53:20;;;;;;;;;5.33;4.33;;;;;;;;2060170;27;2746124;-73
2023/05/09 00:54:30;;;;;;;;;6.00;4.00;;;;;;;;2025204;27;3462737;-73
2023/05/09 00:55:41;;;;;;;;;6.00;6.00;;;;;;;;2052265;27;2734675;-73
2023/05/09 00:56:53;;;;;;;;;5.80;5.80;;;;;;;;2059074;27;2741957;-73
2023/05/09 00:58:04;;;;;;;;;5.00;5.00;;;;;;;;2012659;27;2742973;-73
2023/05/09 00:59:15;;;;;;;;;5.67;5.67;;;;;;;;2041689;27;2740056;-73
2023/05/09 01:00:26;;;;;;;;;5.33;5.00;;;;;;;;2053503;27;2741967;-73
2023/05/09 01:01:38;;;;;;;;;6.20;6.00;;;;;;;;2046409;27;2740913;-73
2023/05/09 01:02:51;;;;;;;;;7.67;7.00;;;;;;;;2009235;27;2742999;-73
2023/05/09 01:04:02;;;;;;;;;5.00;5.00;;;;;;;;2033928;27;2754538;-73
2023/05/09 01:05:13;;;;;;;;;5.67;5.00;;;;;;;;2074031;27;1813795;-73
2023/05/09 01:06:32;;;;;;;;;6.17;4.67;;;;;;;;2067902;27;2745068;-73
2023/05/09 01:07:55;;;;;;;;;6.33;6.00;;;;;;;;2015022;27;2739853;-73
2023/05/09 01:09:30;;;;;;;;;8.17;6.67;;;;;;;;2068440;27;2740919;-73
2023/05/09 01:10:55;;;;;;;;;5.17;5.17;;;;;;;;2045967;27;2734637;-73
2023/05/09 01:12:24;;;;;;;;;4.00;3.33;;;;;;;;2018068;27;2747132;-73
2023/05/09 01:13:43;;;;;;;;;5.00;4.67;;;;;;;;2034530;27;2752400;-73
2023/05/09 01:14:56;;;;;;;;;5.00;3.67;;;;;;;;2032217;27;2746088;-73
2023/05/09 01:16:11;;;;;;;;;7.00;6.00;;;;;;;;2034278;27;2741005;-73
2023/05/09 01:17:30;;;;;;;;;2.50;2.50;;;;;;;;2054190;27;2729424;-73
2023/05/09 01:19:10;;;;;;;;;5.00;5.00;;;;;;;;2004252;27;2743366;-73
2023/05/09 01:20:20;;;;;;;;;6.00;5.00;;;;;;;;2018964;28;2748192;-73
2023/05/09 01:21:32;;;;;;;;;5.33;4.33;;;;;;;;2042667;27;2743072;-73
2023/05/09 01:22:45;;;;;;;;;4.33;4.33;;;;;;;;2034468;27;2745409;-73
2023/05/09 01:24:03;;;;;;;;;5.83;5.00;;;;;;;;2062197;27;2737813;-73
2023/05/09 01:25:35;;;;;;;;;5.00;4.33;;;;;;;;2012687;27;2746101;-73
2023/05/09 01:27:01;;;;;;;;;5.33;4.67;;;;;;;;2040884;27;2748220;-73
2023/05/09 01:28:13;;;;;;;;;3.33;3.33;;;;;;;;2043648;27;2750272;-73
2023/05/09 01:29:29;;;;;;;;;4.33;4.33;;;;;;;;2068679;27;2732075;-73
2023/05/09 01:30:42;;;;;;;;;4.67;4.67;;;;;;;;2015143;27;2750358;-73
2023/05/09 01:31:56;;;;;;;;;6.00;5.00;;;;;;;;2069668;27;2740984;-73
2023/05/09 01:33:12;;;;;;;;;5.00;4.83;;;;;;;;2044909;27;2745072;-73
2023/05/09 01:34:25;;;;;;;;;4.00;4.00;;;;;;;;2011011;27;2740878;-73
2023/05/09 01:35:36;;;;;;;;;4.00;4.00;;;;;;;;2032712;27;2734625;-73
2023/05/09 01:36:49;;;;;;;;;4.00;3.67;;;;;;;;2037034;27;2736736;-73
2023/05/09 01:38:05;;;;;;;;;4.00;3.83;;;;;;;;2060895;27;2747194;-73
2023/05/09 01:39:16;;;;;;;;;6.00;3.33;;;;;;;;2019019;27;2746090;-73
2023/05/09 01:40:31;;;;;;;;;4.50;4.17;;;;;;;;2068205;27;2736735;-73
2023/05/09 01:41:44;;;;;;;;;4.00;4.00;;;;;;;;2036894;27;2738790;-73
2023/05/09 01:43:04;;;;;;;;;5.33;3.33;;;;;;;;2011729;27;2753483;-73
2023/05/09 01:44:19;;;;;;;;;4.00;4.00;;;;;;;;2051423;27;2735689;-73
2023/05/09 01:45:31;;;;;;;;;4.33;4.33;;;;;;;;2004554;27;2754514;-73
2023/05/09 01:46:44;;;;;;;;;3.17;3.17;;;;;;;;2064632;27;2739829;-73
2023/05/09 01:47:56;;;;;;;;;4.00;4.00;;;;;;;;2020807;27;2751737;-73
2023/05/09 01:49:10;;;;;;;;;3.83;3.50;;;;;;;;2059787;27;2747144;-73
2023/05/09 01:50:23;;;;;;;;;4.33;4.33;;;;;;;;2037554;27;2742961;-73
2023/05/09 01:51:35;;;;;;;;;5.00;3.67;;;;;;;;2015736;27;2750679;-73
2023/05/09 01:52:51;;;;;;;;;4.17;4.17;;;;;;;;2063159;27;2742973;-73
2023/05/09 01:54:02;;;;;;;;;4.33;4.33;;;;;;;;2013893;27;2747203;-73
2023/05/09 01:55:16;;;;;;;;;5.00;4.17;;;;;;;;2058049;27;2748189;-73
2023/05/09 01:56:30;;;;;;;;;4.17;4.17;;;;;;;;2033824;27;2731566;-73
2023/05/09 01:57:43;;;;;;;;;4.00;4.00;;;;;;;;2045849;27;2735745;-73
2023/05/09 01:58:57;;;;;;;;;7.67;6.00;;;;;;;;2041396;27;2733613;-73
2023/05/09 02:00:09;;;;;;;;;4.00;4.00;;;;;;;;2019236;27;2754542;-73
2023/05/09 02:01:22;;;;;;;;;6.17;4.33;;;;;;;;2068464;27;2734683;-73
2023/05/09 02:02:36;;;;;;;;;4.50;4.33;;;;;;;;2036961;27;2736771;-73
2023/05/09 02:03:49;;;;;;;;;6.00;4.33;;;;;;;;2004529;27;2746118;-73
2023/05/09 02:05:00;;;;;;;;;3.67;3.67;;;;;;;;2038987;27;2746131;-73
2023/05/09 02:06:11;;;;;;;;;4.00;4.00;;;;;;;;2043052;27;2750755;-73
2023/05/09 02:07:25;;;;;;;;;6.00;5.33;;;;;;;;2032669;27;2744042;-73
2023/05/09 02:08:36;;;;;;;;;5.67;4.67;;;;;;;;2028273;27;2740909;-73
2023/05/09 02:09:49;;;;;;;;;5.75;5.00;;;;;;;;2068245;27;2740917;-73
2023/05/09 02:11:02;;;;;;;;;5.33;4.67;;;;;;;;2067610;27;2740921;-73
2023/05/09 02:12:12;;;;;;;;;5.00;5.00;;;;;;;;2016179;27;2746099;-73
2023/05/09 02:13:23;;;;;;;;;4.67;4.67;;;;;;;;2058464;27;2743036;-73
2023/05/09 02:14:34;;;;;;;;;3.00;3.00;;;;;;;;2050620;27;2754432;-73
2023/05/09 02:15:47;;;;;;;;;2.67;2.00;;;;;;;;2052234;27;2731512;-73
2023/05/09 02:17:04;;;;;;;;;4.00;4.00;;;;;;;;2009729;27;2746235;-73
2023/05/09 02:18:17;;;;;;;;;4.00;4.00;;;;;;;;2060973;27;2755038;-73
2023/05/09 02:19:34;;;;;;;;;5.00;5.00;;;;;;;;2038134;27;2747157;-73
2023/05/09 02:20:47;;;;;;;;;4.33;4.17;;;;;;;;2036635;27;2735693;-73
2023/05/09 02:21:57;;;;;;;;;6.67;5.00;;;;;;;;2011156;27;2753613;-73
2023/05/09 02:23:08;;;;;;;;;4.67;4.67;;;;;;;;2060741;27;2747147;-73
2023/05/09 02:24:21;;;;;;;;;4.33;4.33;;;;;;;;2068178;27;2733649;-73
2023/05/09 02:25:32;;;;;;;;;5.00;5.00;;;;;;;;2015924;27;2746090;-73
2023/05/09 02:26:43;;;;;;;;;5.00;5.00;;;;;;;;2034990;27;2746098;-73
2023/05/09 02:27:55;;;;;;;;;4.67;4.67;;;;;;;;2051053;27;2740904;-73
2023/05/09 02:29:09;;;;;;;;;5.00;4.17;;;;;;;;2053250;27;2743036;-73
2023/05/09 02:30:23;;;;;;;;;6.00;4.67;;;;;;;;2011166;27;2746121;-73
2023/05/09 02:31:39;;;;;;;;;5.67;5.00;;;;;;;;2069185;27;2728390;-73
2023/05/09 02:32:55;;;;;;;;;5.33;4.50;;;;;;;;2036264;27;2746138;-73
2023/05/09 02:34:08;;;;;;;;;5.33;4.67;;;;;;;;2036394;27;2743311;-73
2023/05/09 02:35:19;;;;;;;;;3.00;3.00;;;;;;;;2012989;27;2745073;-73
2023/05/09 02:36:30;;;;;;;;;4.67;4.67;;;;;;;;2045212;27;2737809;-73
2023/05/09 02:37:40;;;;;;;;;5.00;5.00;;;;;;;;2039807;27;2746165;-73
2023/05/09 02:38:52;;;;;;;;;5.00;5.00;;;;;;;;2066781;27;2737778;-73
2023/05/09 02:40:04;;;;;;;;;5.33;4.33;;;;;;;;2020868;27;2746148;-73
2023/05/09 02:41:17;;;;;;;;;4.00;3.17;;;;;;;;2059616;27;2746094;-73
2023/05/09 02:42:30;;;;;;;;;6.83;5.33;;;;;;;;2029949;27;2740910;-73
2023/05/09 02:43:40;;;;;;;;;5.00;5.00;;;;;;;;2016733;27;2748216;-73
2023/05/09 02:44:52;;;;;;;;;5.67;4.33;;;;;;;;2046680;27;2747147;-73
2023/05/09 02:46:02;;;;;;;;;4.00;4.00;;;;;;;;2038133;27;2737753;-73
2023/05/09 02:47:15;;;;;;;;;4.00;4.00;;;;;;;;2055206;27;2744015;-73
2023/05/09 02:48:25;;;;;;;;;5.67;4.67;;;;;;;;2019408;27;2740949;-73
2023/05/09 02:49:36;;;;;;;;;4.33;4.00;;;;;;;;2057890;27;2748200;-73
2023/05/09 02:50:47;;;;;;;;;5.00;4.00;;;;;;;;2050996;27;2747156;-73
2023/05/09 02:51:59;;;;;;;;;5.00;5.00;;;;;;;;2054692;27;2746125;-73
2023/05/09 02:53:09;;;;;;;;;7.00;5.00;;;;;;;;2013403;27;2750300;-73
2023/05/09 02:54:20;;;;;;;;;4.00;4.00;;;;;;;;2066167;27;2741959;-73
2023/05/09 02:55:31;;;;;;;;;4.00;4.00;;;;;;;;2037124;27;2754432;-73
2023/05/09 02:56:42;;;;;;;;;4.67;4.67;;;;;;;;2060130;27;2750270;-73
2023/05/09 02:57:53;;;;;;;;;6.00;3.00;;;;;;;;2054288;27;2748294;-73
2023/05/09 02:59:04;;;;;;;;;4.33;4.00;;;;;;;;2046956;27;2741992;-73
2023/05/09 03:00:16;;;;;;;;;5.00;4.67;;;;;;;;2058485;27;2745163;-73
2023/05/09 03:01:30;;;;;;;;;6.00;4.67;;;;;;;;2029972;27;2739872;-73
2023/05/09 03:02:40;;;;;;;;;6.00;4.00;;;;;;;;2016629;27;2748765;-73
2023/05/09 03:03:51;;;;;;;;;6.33;5.67;;;;;;;;2066916;27;2731532;-73
2023/05/09 03:05:02;;;;;;;;;4.67;4.00;;;;;;;;2036951;27;2750334;-73
2023/05/09 03:06:13;;;;;;;;;5.33;5.00;;;;;;;;2047167;27;2745079;-73
2023/05/09 03:07:26;;;;;;;;;4.17;3.00;;;;;;;;2061799;27;2750300;-73
2023/05/09 03:08:36;;;;;;;;;4.00;4.00;;;;;;;;2005526;27;2745065;-73
2023/05/09 03:09:47;;;;;;;;;3.00;3.00;;;;;;;;2051013;27;2754652;-73
2023/05/09 03:10:58;;;;;;;;;4.33;4.33;;;;;;;;2062130;27;2740894;-73
2023/05/09 03:12:09;;;;;;;;;5.00;4.00;;;;;;;;2051164;27;2742309;-73
2023/05/09 03:13:19;;;;;;;;;5.33;5.33;;;;;;;;2019036;28;2746111;-73
2023/05/09 03:14:30;;;;;;;;;5.00;5.00;;;;;;;;2055154;27;2741977;-73
2023/05/09 03:15:41;;;;;;;;;4.33;4.33;;;;;;;;2052513;27;2748253;-73
2023/05/09 03:16:52;;;;;;;;;4.00;4.00;;;;;;;;2058822;27;2747144;-73
2023/05/09 03:18:02;;;;;;;;;5.33;5.00;;;;;;;;2062504;27;3458628;-73
2023/05/09 03:19:13;;;;;;;;;4.00;4.00;;;;;;;;2060051;27;2746138;-73
2023/05/09 03:20:25;;;;;;;;;4.00;4.00;;;;;;;;2064313;27;2744033;-73
2023/05/09 03:21:35;;;;;;;;;5.00;4.00;;;;;;;;2045110;27;2746162;-73
2023/05/09 03:22:47;;;;;;;;;7.00;5.67;;;;;;;;2064819;27;2734633;-73
2023/05/09 03:23:57;;;;;;;;;4.33;4.00;;;;;;;;2042920;27;2743021;-73
2023/05/09 03:25:09;;;;;;;;;6.33;6.00;;;;;;;;2061641;27;3461722;-73
2023/05/09 03:26:22;;;;;;;;;5.17;4.17;;;;;;;;2068035;27;2745125;-73
2023/05/09 03:27:32;;;;;;;;;6.00;5.00;;;;;;;;2011975;27;2746114;-73
2023/05/09 03:28:43;;;;;;;;;5.00;5.00;;;;;;;;2068427;27;2747181;-73
2023/05/09 03:29:55;;;;;;;;;6.40;5.80;;;;;;;;2068817;27;2736785;-73
2023/05/09 03:31:08;;;;;;;;;7.00;7.00;;;;;;;;2040148;27;2738808;-73
2023/05/09 03:32:21;;;;;;;;;5.00;5.00;;;;;;;;2042834;27;2740909;-73
2023/05/09 03:33:31;;;;;;;;;5.67;5.00;;;;;;;;2019722;27;2752305;-73
2023/05/09 03:34:42;;;;;;;;;9.00;5.00;;;;;;;;2063666;27;2730565;-73
2023/05/09 03:35:53;;;;;;;;;4.00;4.00;;;;;;;;2062445;27;2747131;-73
2023/05/09 03:37:04;;;;;;;;;5.00;5.00;;;;;;;;2059546;27;2746665;-73
2023/05/09 03:38:15;;;;;;;;;6.00;4.00;;;;;;;;2057546;27;2754536;-73
2023/05/09 03:39:26;;;;;;;;;6.00;5.33;;;;;;;;2056444;27;2745115;-73
2023/05/09 03:40:37;;;;;;;;;6.67;6.00;;;;;;;;2069308;27;2734640;-73
2023/05/09 03:41:48;;;;;;;;;6.00;5.00;;;;;;;;2038651;27;2752368;-73
2023/05/09 03:42:58;;;;;;;;;6.67;6.00;;;;;;;;2031495;27;2752360;-73
2023/05/09 03:44:09;;;;;;;;;6.00;5.33;;;;;;;;2054977;27;2742999;-73
2023/05/09 03:45:19;;;;;;;;;6.33;5.00;;;;;;;;2037585;27;2745096;-73
2023/05/09 03:46:30;;;;;;;;;5.67;3.00;;;;;;;;2058965;27;2752438;-73
2023/05/09 03:47:41;;;;;;;;;5.33;5.00;;;;;;;;2067726;27;2730494;-73
2023/05/09 03:48:54;;;;;;;;;2.00;2.00;;;;;;;;2069152;27;2733616;-73
2023/05/09 03:50:07;;;;;;;;;6.83;4.50;;;;;;;;2060846;27;2745052;-73
2023/05/09 03:51:17;;;;;;;;;5.67;5.00;;;;;;;;2013265;27;2746188;-73
2023/05/09 03:52:28;;;;;;;;;4.33;4.33;;;;;;;;2067902;27;2737785;-72
2023/05/09 03:53:38;;;;;;;;;5.67;4.33;;;;;;;;2040052;27;2741373;-73
2023/05/09 03:54:49;;;;;;;;;6.67;4.67;;;;;;;;2063379;27;2746661;-73
2023/05/09 03:56:00;;;;;;;;;5.00;4.67;;;;;;;;2062288;27;2737792;-73
2023/05/09 03:57:11;;;;;;;;;7.00;4.00;;;;;;;;2041903;27;2740937;-73
2023/05/09 03:58:21;;;;;;;;;5.00;4.67;;;;;;;;2055706;27;2746115;-73
2023/05/09 03:59:32;;;;;;;;;4.67;3.67;;;;;;;;2056570;27;2752402;-73
2023/05/09 04:00:43;;;;;;;;;6.00;5.33;;;;;;;;2063199;27;2740370;-73
2023/05/09 04:01:53;;;;;;;;;3.00;3.00;;;;;;;;2042309;27;2746514;-73
2023/05/09 04:03:04;;;;;;;;;4.67;3.00;;;;;;;;2067507;27;2741991;-73
2023/05/09 04:04:18;;;;;;;;;3.33;3.33;;;;;;;;2069285;27;2735708;-73
2023/05/09 04:05:28;;;;;;;;;4.00;4.00;;;;;;;;2016309;27;2749711;-73
2023/05/09 04:06:39;;;;;;;;;4.00;3.67;;;;;;;;2056929;27;2749347;-73
2023/05/09 04:07:50;;;;;;;;;5.00;3.33;;;;;;;;2051351;27;2752484;-73
2023/05/09 04:09:01;;;;;;;;;1.67;1.00;;;;;;;;2053325;27;2727389;-72
2023/05/09 04:10:14;;;;;;;;;4.00;4.00;;;;;;;;2068228;27;2752463;-73
2023/05/09 04:11:24;;;;;;;;;4.00;3.33;;;;;;;;2020644;27;2748262;-73
2023/05/09 04:12:35;;;;;;;;;1.33;1.33;;;;;;;;2042587;27;2747147;-73
2023/05/09 04:13:46;;;;;;;;;4.00;4.00;;;;;;;;2048753;27;2754957;-73
2023/05/09 04:14:56;;;;;;;;;3.33;3.33;;;;;;;;2059286;27;2749225;-73
2023/05/09 04:16:07;;;;;;;;;3.33;3.00;;;;;;;;2069037;27;2732561;-73
2023/05/09 04:17:18;;;;;;;;;5.67;3.67;;;;;;;;2037323;27;2747174;-73
2023/05/09 04:18:30;;;;;;;;;2.33;2.33;;;;;;;;2061136;27;2753421;-73
2023/05/09 04:19:40;;;;;;;;;5.33;4.00;;;;;;;;2039018;27;2752425;-73
2023/05/09 04:20:51;;;;;;;;;4.00;2.00;;;;;;;;2067038;27;2747594;-73
2023/05/09 04:22:02;;;;;;;;;3.33;3.00;;;;;;;;2056367;27;2739869;-73
2023/05/09 04:23:14;;;;;;;;;2.80;2.80;;;;;;;;2045325;27;2737765;-73
2023/05/09 04:24:27;;;;;;;;;3.00;3.00;;;;;;;;2035027;27;2735778;-73
2023/05/09 04:25:40;;;;;;;;;2.50;2.00;;;;;;;;2030821;27;2748181;-73
2023/05/09 04:26:53;;;;;;;;;2.50;2.17;;;;;;;;2031692;27;2736734;-73
2023/05/09 04:28:07;;;;;;;;;3.83;3.00;;;;;;;;2029642;27;2735708;-73
2023/05/09 04:29:20;;;;;;;;;2.83;2.83;;;;;;;;2034951;27;2744526;-73
2023/05/09 04:30:33;;;;;;;;;1.67;1.67;;;;;;;;2038159;27;2729460;-73
2023/05/09 04:31:43;;;;;;;;;4.00;2.00;;;;;;;;2017967;27;2750257;-73
2023/05/09 04:32:54;;;;;;;;;2.33;2.33;;;;;;;;2067362;27;2736742;-73
2023/05/09 04:34:05;;;;;;;;;3.00;3.00;;;;;;;;2042020;27;2750606;-73
2023/05/09 04:35:17;;;;;;;;;2.00;2.00;;;;;;;;2053014;27;2750301;-73
2023/05/09 04:36:32;;;;;;;;;3.33;3.33;;;;;;;;2056326;27;2739855;-73
2023/05/09 04:37:42;;;;;;;;;3.00;3.00;;;;;;;;2012121;27;2752374;-73
2023/05/09 04:38:53;;;;;;;;;2.00;2.00;;;;;;;;2063011;27;2742419;-73
2023/05/09 04:40:07;;;;;;;;;2.20;2.20;;;;;;;;2062463;27;2750303;-72
2023/05/09 04:41:21;;;;;;;;;2.83;2.00;;;;;;;;2047560;27;2735686;-73
2023/05/09 04:42:34;;;;;;;;;2.50;1.50;;;;;;;;2046571;27;2725328;-72
2023/05/09 04:43:47;;;;;;;;;2.33;1.00;;;;;;;;2045106;27;2726787;-73
2023/05/09 04:44:58;;;;;;;;;2.33;2.33;;;;;;;;2042068;27;2754907;-73
2023/05/09 04:46:10;;;;;;;;;1.00;1.00;;;;;;;;2069420;27;2727341;-73
2023/05/09 04:47:23;;;;;;;;;0.00;0.00;;;;;;;;2066324;27;2731540;-72
2023/05/09 04:48:36;;;;;;;;;2.83;2.83;;;;;;;;2036069;27;2728390;-72
2023/05/09 04:49:49;;;;;;;;;2.67;2.00;;;;;;;;2038127;27;2741963;-73
2023/05/09 04:51:02;;;;;;;;;0.83;0.83;;;;;;;;2046376;27;2729459;-72
2023/05/09 04:52:15;;;;;;;;;1.50;1.33;;;;;;;;2036570;27;2731523;-73
2023/05/09 04:53:28;;;;;;;;;2.00;1.50;;;;;;;;2032902;27;2731519;-73
2023/05/09 04:54:41;;;;;;;;;0.33;0.33;;;;;;;;2046512;27;2729444;-72
2023/05/09 04:55:55;;;;;;;;;1.00;0.67;;;;;;;;2047297;27;2729472;-72
2023/05/09 04:57:08;;;;;;;;;1.00;1.00;;;;;;;;2044011;27;2729431;-72
2023/05/09 04:58:21;;;;;;;;;1.00;1.00;;;;;;;;2038067;27;2741939;-72
2023/05/09 04:59:34;;;;;;;;;1.50;1.50;;;;;;;;2046008;27;2731555;-73
2023/05/09 05:00:47;;;;;;;;;1.17;1.00;;;;;;;;2069562;27;2722141;-72
2023/05/09 05:02:01;;;;;;;;;1.00;1.00;;;;;;;;2047314;27;2727356;-72
2023/05/09 05:03:16;;;;;;;;;1.50;1.50;;;;;;;;2069048;27;2738163;-72
2023/05/09 05:04:30;;;;;;;;;1.00;1.00;;;;;;;;2046965;27;2726307;-73
2023/05/09 05:05:41;;;;;;;;;3.33;2.00;;;;;;;;2042540;27;2754519;-72
2023/05/09 05:06:52;;;;;;;;;1.25;1.25;;;;;;;;2068232;27;2734684;-72
2023/05/09 05:08:05;;;;;;;;;3.67;2.33;;;;;;;;2037739;27;2748256;-72
2023/05/09 05:09:16;;;;;;;;;2.00;2.00;;;;;;;;2011843;27;2751311;-72
2023/05/09 05:10:27;;;;;;;;;2.00;1.00;;;;;;;;2065845;27;2726391;-72
2023/05/09 05:11:40;;;;;;;;;4.00;2.33;;;;;;;;2031925;27;2754448;-72
2023/05/09 05:12:53;;;;;;;;;2.83;2.00;;;;;;;;2054303;27;2748208;-72
2023/05/09 05:14:03;;;;;;;;;2.00;2.00;;;;;;;;2002276;27;2752344;-72
2023/05/09 05:15:14;;;;;;;;;2.33;2.33;;;;;;;;2053198;27;2733630;-72
2023/05/09 05:16:27;;;;;;;;;1.50;1.00;;;;;;;;2064394;27;2726316;-72
2023/05/09 05:17:37;;;;;;;;;2.00;2.00;;;;;;;;2015618;27;2754420;-72
2023/05/09 05:18:48;;;;;;;;;2.00;2.00;;;;;;;;2068431;27;2740357;-72
2023/05/09 05:19:58;;;;;;;;;1.33;1.33;;;;;;;;2041396;27;2735702;-72
2023/05/09 05:21:09;;;;;;;;;2.00;2.00;;;;;;;;2068665;27;2740941;-72
2023/05/09 05:22:22;;;;;;;;;2.00;2.00;;;;;;;;2067010;27;2741940;-72
2023/05/09 05:23:35;;;;;;;;;2.17;1.67;;;;;;;;2031127;27;2739912;-72
2023/05/09 05:24:48;;;;;;;;;2.00;2.00;;;;;;;;2038384;27;2731504;-72
2023/05/09 05:26:01;;;;;;;;;1.00;1.00;;;;;;;;2036105;27;2729496;-72
2023/05/09 05:27:14;;;;;;;;;2.00;2.00;;;;;;;;2056298;27;2741958;-72
2023/05/09 05:28:27;;;;;;;;;2.00;2.00;;;;;;;;2037872;27;2744110;-72
2023/05/09 05:29:40;;;;;;;;;1.83;1.83;;;;;;;;2027825;27;2735681;-73
2023/05/09 05:30:53;;;;;;;;;2.33;2.33;;;;;;;;2038665;27;2752380;-72
2023/05/09 05:32:06;;;;;;;;;2.50;2.50;;;;;;;;2046607;27;2729451;-72
2023/05/09 05:33:19;;;;;;;;;1.67;1.67;;;;;;;;2046986;27;2720427;-72
2023/05/09 05:34:32;;;;;;;;;2.50;2.00;;;;;;;;2045176;27;2739873;-72
2023/05/09 05:35:45;;;;;;;;;2.33;2.17;;;;;;;;2046321;27;2748233;-72
2023/05/09 05:36:58;;;;;;;;;2.17;2.00;;;;;;;;2066448;27;2741941;-72
2023/05/09 05:38:11;;;;;;;;;2.33;2.33;;;;;;;;2041525;27;2731579;-72
2023/05/09 05:39:24;;;;;;;;;1.17;1.17;;;;;;;;2035939;27;2733630;-72
2023/05/09 05:40:34;;;;;;;;;2.00;2.00;;;;;;;;2004965;27;2751318;-72
2023/05/09 05:41:45;;;;;;;;;1.00;0.00;;;;;;;;2061726;27;2725631;-72
2023/05/09 05:42:55;;;;;;;;;2.33;2.00;;;;;;;;2034650;27;2747263;-72
2023/05/09 05:44:06;;;;;;;;;2.00;2.00;;;;;;;;2058864;27;2746095;-72
2023/05/09 05:45:19;;;;;;;;;3.00;1.40;;;;;;;;2060515;27;2733693;-72
2023/05/09 05:46:32;;;;;;;;;1.00;1.00;;;;;;;;2032374;27;2727372;-72
2023/05/09 05:47:45;;;;;;;;;1.67;1.00;;;;;;;;2067168;27;2732608;-72
2023/05/09 05:48:58;;;;;;;;;1.00;1.00;;;;;;;;2070321;27;2722571;-72
2023/05/09 05:50:11;;;;;;;;;1.33;1.33;;;;;;;;2038391;27;2720093;-72
2023/05/09 05:51:24;;;;;;;;;2.00;1.00;;;;;;;;2044115;27;2725281;-72
2023/05/09 05:52:37;;;;;;;;;3.00;2.33;;;;;;;;2035255;27;2736739;-72
2023/05/09 05:53:50;;;;;;;;;2.00;2.00;;;;;;;;2023600;27;2731536;-72
2023/05/09 05:55:04;;;;;;;;;1.17;1.00;;;;;;;;2024555;28;2731543;-72
2023/05/09 05:56:17;;;;;;;;;3.00;2.17;;;;;;;;2029475;27;2750265;-72
2023/05/09 05:57:30;;;;;;;;;1.33;1.33;;;;;;;;2038108;27;2729433;-72
2023/05/09 05:58:43;;;;;;;;;1.33;0.83;;;;;;;;2044895;27;2725320;-72
2023/05/09 05:59:56;;;;;;;;;2.50;1.50;;;;;;;;2038867;27;2741989;-72
2023/05/09 06:01:09;;;;;;;;;1.00;1.00;;;;;;;;2042247;27;2724602;-72
2023/05/09 06:02:22;;;;;;;;;3.50;2.00;;;;;;;;2061375;27;2748174;-73
2023/05/09 06:03:35;;;;;;;;;1.00;1.00;;;;;;;;2046309;27;2723207;-72
2023/05/09 06:04:48;;;;;;;;;1.83;1.83;;;;;;;;2036206;27;2733084;-73
2023/05/09 06:06:01;;;;;;;;;1.00;1.00;;;;;;;;2037047;27;2720056;-72
2023/05/09 06:07:14;;;;;;;;;1.00;1.00;;;;;;;;2036640;27;2727353;-72
2023/05/09 06:08:27;;;;;;;;;2.67;1.17;;;;;;;;2038527;27;2740211;-72
2023/05/09 06:09:40;;;;;;;;;1.17;1.17;;;;;;;;2044588;27;2728395;-72
2023/05/09 06:10:53;;;;;;;;;2.00;1.50;;;;;;;;2042080;27;2721099;-72
2023/05/09 06:12:06;;;;;;;;;1.00;1.00;;;;;;;;2031542;27;2719056;-72
2023/05/09 06:13:19;;;;;;;;;0.67;0.67;;;;;;;;2023705;27;2727806;-72
2023/05/09 06:14:32;;;;;;;;;1.50;1.17;;;;;;;;2037673;27;2727828;-73
2023/05/09 06:15:45;;;;;;;;;2.33;2.33;;;;;;;;2035050;27;2750319;-72
2023/05/09 06:16:58;;;;;;;;;1.17;1.17;;;;;;;;2038048;27;2728395;-72
2023/05/09 06:18:11;;;;;;;;;2.67;1.00;;;;;;;;2045933;27;2720043;-72
2023/05/09 06:19:24;;;;;;;;;1.83;1.83;;;;;;;;2062478;27;2739865;-72
2023/05/09 06:20:37;;;;;;;;;2.17;1.17;;;;;;;;2045943;27;2732573;-72
2023/05/09 06:21:50;;;;;;;;;1.83;1.83;;;;;;;;2042960;27;2728414;-72
2023/05/09 06:23:03;;;;;;;;;1.00;1.00;;;;;;;;2038919;27;2724240;-72
2023/05/09 06:24:16;;;;;;;;;1.83;1.00;;;;;;;;2038118;27;2725266;-72
2023/05/09 06:25:29;;;;;;;;;2.00;1.17;;;;;;;;2065668;27;2739841;-72
2023/05/09 06:26:43;;;;;;;;;2.33;1.67;;;;;;;;2038970;27;2729507;-72
2023/05/09 06:27:56;;;;;;;;;1.50;1.50;;;;;;;;2041946;27;2730520;-72
2023/05/09 06:29:09;;;;;;;;;2.33;1.67;;;;;;;;2037029;27;2736724;-72
2023/05/09 06:30:22;;;;;;;;;3.83;2.67;;;;;;;;2045323;27;2741935;-72
2023/05/09 06:31:37;;;;;;;;;3.00;2.33;;;;;;;;2045565;27;2743586;-72
2023/05/09 06:32:50;;;;;;;;;3.67;1.67;;;;;;;;2045938;27;2730451;-72
2023/05/09 06:34:03;;;;;;;;;1.17;1.17;;;;;;;;2037925;27;2725289;-72
2023/05/09 06:35:14;;;;;;;;;3.00;1.67;;;;;;;;2017479;27;2753427;-72
2023/05/09 06:36:27;;;;;;;;;1.17;1.17;;;;;;;;2068531;27;2731544;-72
2023/05/09 06:37:40;;;;;;;;;1.00;1.00;;;;;;;;2037517;27;2729420;-72
2023/05/09 06:38:53;;;;;;;;;2.83;1.00;;;;;;;;2045002;27;2732596;-72
2023/05/09 06:40:06;;;;;;;;;1.17;1.17;;;;;;;;2059219;27;2742474;-73
2023/05/09 06:41:20;;;;;;;;;1.50;1.00;;;;;;;;2033581;27;2731559;-72
2023/05/09 06:42:33;;;;;;;;;2.67;1.00;;;;;;;;2057437;27;2742000;-72
2023/05/09 06:43:46;;;;;;;;;2.00;2.00;;;;;;;;2046713;27;2733666;-72
2023/05/09 06:44:59;;;;;;;;;2.17;2.17;;;;;;;;2042411;27;2744487;-72
2023/05/09 06:46:12;;;;;;;;;3.50;2.00;;;;;;;;2043340;27;2748205;-72
2023/05/09 06:47:25;;;;;;;;;2.67;1.00;;;;;;;;2040918;27;2725286;-72
2023/05/09 06:48:38;;;;;;;;;3.50;1.17;;;;;;;;2042166;27;2744057;-72
2023/05/09 06:49:51;;;;;;;;;2.00;1.00;;;;;;;;2043714;27;2725344;-72
2023/05/09 06:51:04;;;;;;;;;1.67;1.67;;;;;;;;2063405;27;2729456;-72
2023/05/09 06:52:20;;;;;;;;;2.00;1.83;;;;;;;;2041844;27;2728458;-72
2023/05/09 06:53:33;;;;;;;;;1.33;1.17;;;;;;;;2040191;27;2733676;-72
2023/05/09 06:54:46;;;;;;;;;2.00;2.00;;;;;;;;2037697;27;2735709;-73
2023/05/09 06:55:59;;;;;;;;;3.00;2.00;;;;;;;;2038067;27;2737844;-72
2023/05/09 06:57:12;;;;;;;;;3.17;2.00;;;;;;;;2040081;27;2744014;-72
2023/05/09 06:58:26;;;;;;;;;2.00;2.00;;;;;;;;2045469;27;2736731;-72
2023/05/09 06:59:39;;;;;;;;;3.67;2.33;;;;;;;;2045742;27;2754781;-72
2023/05/09 07:00:52;;;;;;;;;1.50;1.50;;;;;;;;2047531;27;2733598;-72
2023/05/09 07:02:05;;;;;;;;;3.50;2.33;;;;;;;;2067961;27;2750787;-72